sensor_id;sensor_type;location;lat;lon;timestamp;P1;durP1;ratioP1;P2;durP2;ratioP2
60867;SDS011;46702;48.370;10.794;2022-10-19T00:01:38;12.65;;;4.60;;
60867;SDS011;46702;48.370;10.794;2022-10-19T00:04:04;8.77;;;3.88;;
60867;SDS011;46702;48.370;10.794;2022-10-19T00:06:30;4.47;;;3.45;;
60867;SDS011;46702;48.370;10.794;2022-10-19T00:08:59;5.57;;;3.65;;
60867;SDS011;46702;48.370;10.794;2022-10-19T00:11:27;13.18;;;4.10;;
60867;SDS011;46702;48.370;10.794;2022-10-19T00:13:55;15.73;;;5.45;;
60867;SDS011;46702;48.370;10.794;2022-10-19T00:16:21;20.85;;;5.90;;
60867;SDS011;46702;48.370;10.794;2022-10-19T00:18:49;84.68;;;16.20;;
60867;SDS011;46702;48.370;10.794;2022-10-19T00:21:16;127.15;;;25.63;;
60867;SDS011;46702;48.370;10.794;2022-10-19T00:23:43;131.32;;;27.77;;
60867;SDS011;46702;48.370;10.794;2022-10-19T00:26:10;39.85;;;9.65;;
60867;SDS011;46702;48.370;10.794;2022-10-19T00:28:36;59.15;;;13.40;;
60867;SDS011;46702;48.370;10.794;2022-10-19T00:31:06;58.72;;;13.55;;
60867;SDS011;46702;48.370;10.794;2022-10-19T00:33:34;73.97;;;17.05;;
60867;SDS011;46702;48.370;10.794;2022-10-19T00:35:59;28.55;;;9.85;;
60867;SDS011;46702;48.370;10.794;2022-10-19T00:38:26;14.77;;;5.90;;
60867;SDS011;46702;48.370;10.794;2022-10-19T00:40:52;11.10;;;5.50;;
60867;SDS011;46702;48.370;10.794;2022-10-19T00:43:22;9.75;;;4.35;;
60867;SDS011;46702;48.370;10.794;2022-10-19T00:45:49;8.02;;;3.92;;
60867;SDS011;46702;48.370;10.794;2022-10-19T00:48:18;15.43;;;5.03;;
60867;SDS011;46702;48.370;10.794;2022-10-19T00:50:50;10.30;;;4.68;;
60867;SDS011;46702;48.370;10.794;2022-10-19T00:53:20;9.23;;;4.20;;
60867;SDS011;46702;48.370;10.794;2022-10-19T00:55:47;10.67;;;4.50;;
60867;SDS011;46702;48.370;10.794;2022-10-19T00:58:13;20.27;;;5.53;;
60867;SDS011;46702;48.370;10.794;2022-10-19T01:00:39;20.38;;;4.95;;
60867;SDS011;46702;48.370;10.794;2022-10-19T01:03:05;23.70;;;5.28;;
60867;SDS011;46702;48.370;10.794;2022-10-19T01:05:32;13.82;;;4.60;;
60867;SDS011;46702;48.370;10.794;2022-10-19T01:07:59;14.40;;;4.90;;
60867;SDS011;46702;48.370;10.794;2022-10-19T01:10:40;12.02;;;5.07;;
60867;SDS011;46702;48.370;10.794;2022-10-19T01:13:25;8.18;;;4.68;;
60867;SDS011;46702;48.370;10.794;2022-10-19T01:16:01;12.75;;;4.95;;
60867;SDS011;46702;48.370;10.794;2022-10-19T01:19:09;12.90;;;5.68;;
60867;SDS011;46702;48.370;10.794;2022-10-19T01:21:49;23.77;;;4.38;;
60867;SDS011;46702;48.370;10.794;2022-10-19T01:25:21;31.35;;;7.53;;
60867;SDS011;46702;48.370;10.794;2022-10-19T01:30:12;7.07;;;4.03;;
60867;SDS011;46702;48.370;10.794;2022-10-19T01:38:03;8.57;;;4.03;;
60867;SDS011;46702;48.370;10.794;2022-10-19T01:40:54;7.97;;;4.20;;
60867;SDS011;46702;48.370;10.794;2022-10-19T01:46:34;7.70;;;4.57;;
60867;SDS011;46702;48.370;10.794;2022-10-19T01:49:07;13.85;;;4.95;;
60867;SDS011;46702;48.370;10.794;2022-10-19T01:51:41;9.48;;;4.45;;
60867;SDS011;46702;48.370;10.794;2022-10-19T01:54:16;37.80;;;5.68;;
60867;SDS011;46702;48.370;10.794;2022-10-19T01:56:45;13.52;;;4.47;;
60867;SDS011;46702;48.370;10.794;2022-10-19T01:59:13;37.83;;;7.18;;
60867;SDS011;46702;48.370;10.794;2022-10-19T02:04:09;13.27;;;5.15;;
60867;SDS011;46702;48.370;10.794;2022-10-19T02:06:37;21.02;;;4.50;;
60867;SDS011;46702;48.370;10.794;2022-10-19T02:09:03;9.73;;;4.00;;
60867;SDS011;46702;48.370;10.794;2022-10-19T02:11:29;8.18;;;4.35;;
60867;SDS011;46702;48.370;10.794;2022-10-19T02:14:00;5.80;;;3.90;;
60867;SDS011;46702;48.370;10.794;2022-10-19T02:16:38;7.38;;;4.32;;
60867;SDS011;46702;48.370;10.794;2022-10-19T02:19:08;13.63;;;3.60;;
60867;SDS011;46702;48.370;10.794;2022-10-19T02:24:02;63.00;;;7.80;;
60867;SDS011;46702;48.370;10.794;2022-10-19T02:26:28;6.32;;;4.22;;
60867;SDS011;46702;48.370;10.794;2022-10-19T02:28:54;5.25;;;3.70;;
60867;SDS011;46702;48.370;10.794;2022-10-19T02:31:20;5.13;;;3.65;;
60867;SDS011;46702;48.370;10.794;2022-10-19T02:33:47;7.43;;;3.80;;
60867;SDS011;46702;48.370;10.794;2022-10-19T02:36:13;5.28;;;3.78;;
60867;SDS011;46702;48.370;10.794;2022-10-19T02:38:39;6.47;;;3.95;;
60867;SDS011;46702;48.370;10.794;2022-10-19T02:41:07;5.28;;;4.00;;
60867;SDS011;46702;48.370;10.794;2022-10-19T02:43:39;7.35;;;4.47;;
60867;SDS011;46702;48.370;10.794;2022-10-19T02:46:09;6.63;;;4.32;;
60867;SDS011;46702;48.370;10.794;2022-10-19T02:48:42;7.18;;;4.10;;
60867;SDS011;46702;48.370;10.794;2022-10-19T02:54:04;8.20;;;4.60;;
60867;SDS011;46702;48.370;10.794;2022-10-19T02:56:31;7.63;;;4.15;;
60867;SDS011;46702;48.370;10.794;2022-10-19T02:58:59;9.25;;;4.47;;
60867;SDS011;46702;48.370;10.794;2022-10-19T03:01:25;9.25;;;4.55;;
60867;SDS011;46702;48.370;10.794;2022-10-19T03:03:51;7.25;;;4.22;;
60867;SDS011;46702;48.370;10.794;2022-10-19T03:06:17;7.45;;;4.40;;
60867;SDS011;46702;48.370;10.794;2022-10-19T03:08:43;23.58;;;4.72;;
60867;SDS011;46702;48.370;10.794;2022-10-19T03:11:08;19.65;;;5.05;;
60867;SDS011;46702;48.370;10.794;2022-10-19T03:13:34;37.08;;;5.97;;
60867;SDS011;46702;48.370;10.794;2022-10-19T03:16:09;29.05;;;6.60;;
60867;SDS011;46702;48.370;10.794;2022-10-19T03:18:36;13.95;;;4.70;;
60867;SDS011;46702;48.370;10.794;2022-10-19T03:21:02;11.20;;;4.75;;
60867;SDS011;46702;48.370;10.794;2022-10-19T03:23:32;22.60;;;5.50;;
60867;SDS011;46702;48.370;10.794;2022-10-19T03:25:59;12.00;;;4.57;;
60867;SDS011;46702;48.370;10.794;2022-10-19T03:28:25;11.52;;;5.05;;
60867;SDS011;46702;48.370;10.794;2022-10-19T03:30:50;8.55;;;4.28;;
60867;SDS011;46702;48.370;10.794;2022-10-19T03:33:16;18.63;;;4.97;;
60867;SDS011;46702;48.370;10.794;2022-10-19T03:35:41;7.82;;;4.60;;
60867;SDS011;46702;48.370;10.794;2022-10-19T03:38:07;9.80;;;5.07;;
60867;SDS011;46702;48.370;10.794;2022-10-19T03:40:32;11.95;;;5.13;;
60867;SDS011;46702;48.370;10.794;2022-10-19T03:42:58;8.73;;;5.00;;
60867;SDS011;46702;48.370;10.794;2022-10-19T03:45:24;8.18;;;4.60;;
60867;SDS011;46702;48.370;10.794;2022-10-19T03:47:50;8.73;;;4.45;;
60867;SDS011;46702;48.370;10.794;2022-10-19T03:50:16;9.25;;;5.00;;
60867;SDS011;46702;48.370;10.794;2022-10-19T03:52:42;11.07;;;5.32;;
60867;SDS011;46702;48.370;10.794;2022-10-19T03:55:09;7.65;;;4.75;;
60867;SDS011;46702;48.370;10.794;2022-10-19T03:57:35;8.65;;;5.32;;
60867;SDS011;46702;48.370;10.794;2022-10-19T04:00:03;8.30;;;4.53;;
60867;SDS011;46702;48.370;10.794;2022-10-19T04:02:29;8.30;;;5.25;;
60867;SDS011;46702;48.370;10.794;2022-10-19T04:04:54;9.85;;;5.45;;
60867;SDS011;46702;48.370;10.794;2022-10-19T04:07:20;9.20;;;5.57;;
60867;SDS011;46702;48.370;10.794;2022-10-19T04:09:46;9.18;;;5.38;;
60867;SDS011;46702;48.370;10.794;2022-10-19T04:12:11;11.10;;;6.13;;
60867;SDS011;46702;48.370;10.794;2022-10-19T04:14:37;11.70;;;5.85;;
60867;SDS011;46702;48.370;10.794;2022-10-19T04:17:02;9.95;;;5.63;;
60867;SDS011;46702;48.370;10.794;2022-10-19T04:19:29;13.45;;;6.18;;
60867;SDS011;46702;48.370;10.794;2022-10-19T04:21:55;12.18;;;6.18;;
60867;SDS011;46702;48.370;10.794;2022-10-19T04:24:21;11.07;;;6.00;;
60867;SDS011;46702;48.370;10.794;2022-10-19T04:26:48;11.98;;;6.43;;
60867;SDS011;46702;48.370;10.794;2022-10-19T04:29:16;13.68;;;6.45;;
60867;SDS011;46702;48.370;10.794;2022-10-19T04:31:43;12.80;;;6.53;;
60867;SDS011;46702;48.370;10.794;2022-10-19T04:34:10;13.95;;;7.80;;
60867;SDS011;46702;48.370;10.794;2022-10-19T04:36:36;13.55;;;7.30;;
60867;SDS011;46702;48.370;10.794;2022-10-19T04:39:02;14.00;;;7.07;;
60867;SDS011;46702;48.370;10.794;2022-10-19T04:41:29;14.15;;;7.75;;
60867;SDS011;46702;48.370;10.794;2022-10-19T04:43:56;15.35;;;7.40;;
60867;SDS011;46702;48.370;10.794;2022-10-19T04:46:24;12.38;;;6.53;;
60867;SDS011;46702;48.370;10.794;2022-10-19T04:48:51;14.13;;;7.40;;
60867;SDS011;46702;48.370;10.794;2022-10-19T04:51:17;12.38;;;6.63;;
60867;SDS011;46702;48.370;10.794;2022-10-19T04:53:44;14.30;;;7.47;;
60867;SDS011;46702;48.370;10.794;2022-10-19T04:56:14;12.27;;;7.22;;
60867;SDS011;46702;48.370;10.794;2022-10-19T04:58:42;13.23;;;6.63;;
60867;SDS011;46702;48.370;10.794;2022-10-19T05:01:28;11.27;;;6.57;;
60867;SDS011;46702;48.370;10.794;2022-10-19T05:03:55;13.02;;;7.13;;
60867;SDS011;46702;48.370;10.794;2022-10-19T05:08:48;14.60;;;7.03;;
60867;SDS011;46702;48.370;10.794;2022-10-19T05:11:15;14.38;;;7.03;;
60867;SDS011;46702;48.370;10.794;2022-10-19T05:13:41;15.18;;;6.93;;
60867;SDS011;46702;48.370;10.794;2022-10-19T05:16:09;14.02;;;7.75;;
60867;SDS011;46702;48.370;10.794;2022-10-19T05:18:36;14.15;;;7.50;;
60867;SDS011;46702;48.370;10.794;2022-10-19T05:21:03;11.57;;;7.22;;
60867;SDS011;46702;48.370;10.794;2022-10-19T05:23:34;15.48;;;8.98;;
60867;SDS011;46702;48.370;10.794;2022-10-19T05:26:01;14.43;;;7.63;;
60867;SDS011;46702;48.370;10.794;2022-10-19T05:28:34;13.50;;;7.72;;
60867;SDS011;46702;48.370;10.794;2022-10-19T05:31:10;14.15;;;7.97;;
60867;SDS011;46702;48.370;10.794;2022-10-19T05:33:38;12.82;;;8.05;;
60867;SDS011;46702;48.370;10.794;2022-10-19T05:36:08;14.25;;;8.02;;
60867;SDS011;46702;48.370;10.794;2022-10-19T05:38:36;13.98;;;8.73;;
60867;SDS011;46702;48.370;10.794;2022-10-19T05:41:01;14.40;;;8.43;;
60867;SDS011;46702;48.370;10.794;2022-10-19T05:43:27;16.80;;;9.40;;
60867;SDS011;46702;48.370;10.794;2022-10-19T05:45:53;19.58;;;10.57;;
60867;SDS011;46702;48.370;10.794;2022-10-19T05:48:19;22.90;;;10.80;;
60867;SDS011;46702;48.370;10.794;2022-10-19T05:50:51;14.35;;;8.68;;
60867;SDS011;46702;48.370;10.794;2022-10-19T05:53:18;15.45;;;8.85;;
60867;SDS011;46702;48.370;10.794;2022-10-19T05:55:43;16.40;;;8.77;;
60867;SDS011;46702;48.370;10.794;2022-10-19T05:58:09;15.02;;;8.68;;
60867;SDS011;46702;48.370;10.794;2022-10-19T06:00:35;16.77;;;7.93;;
60867;SDS011;46702;48.370;10.794;2022-10-19T06:03:00;13.85;;;9.00;;
60867;SDS011;46702;48.370;10.794;2022-10-19T06:05:26;12.82;;;7.70;;
60867;SDS011;46702;48.370;10.794;2022-10-19T06:07:52;16.08;;;8.07;;
60867;SDS011;46702;48.370;10.794;2022-10-19T06:10:17;14.93;;;8.18;;
60867;SDS011;46702;48.370;10.794;2022-10-19T06:12:45;15.85;;;8.25;;
60867;SDS011;46702;48.370;10.794;2022-10-19T06:15:11;11.93;;;7.32;;
60867;SDS011;46702;48.370;10.794;2022-10-19T06:17:36;13.05;;;7.63;;
60867;SDS011;46702;48.370;10.794;2022-10-19T06:20:02;14.13;;;8.60;;
60867;SDS011;46702;48.370;10.794;2022-10-19T06:22:28;15.75;;;8.48;;
60867;SDS011;46702;48.370;10.794;2022-10-19T06:24:54;15.30;;;8.75;;
60867;SDS011;46702;48.370;10.794;2022-10-19T06:27:21;16.38;;;8.48;;
60867;SDS011;46702;48.370;10.794;2022-10-19T06:29:47;13.23;;;8.32;;
60867;SDS011;46702;48.370;10.794;2022-10-19T06:32:12;16.05;;;8.88;;
60867;SDS011;46702;48.370;10.794;2022-10-19T06:34:38;16.73;;;9.02;;
60867;SDS011;46702;48.370;10.794;2022-10-19T06:37:04;14.73;;;8.57;;
60867;SDS011;46702;48.370;10.794;2022-10-19T06:39:29;13.93;;;8.23;;
60867;SDS011;46702;48.370;10.794;2022-10-19T06:41:55;14.63;;;7.55;;
60867;SDS011;46702;48.370;10.794;2022-10-19T06:44:21;13.05;;;7.93;;
60867;SDS011;46702;48.370;10.794;2022-10-19T06:46:46;15.15;;;8.85;;
60867;SDS011;46702;48.370;10.794;2022-10-19T06:49:13;14.00;;;8.00;;
60867;SDS011;46702;48.370;10.794;2022-10-19T06:51:38;13.98;;;8.90;;
60867;SDS011;46702;48.370;10.794;2022-10-19T06:54:04;12.40;;;7.88;;
60867;SDS011;46702;48.370;10.794;2022-10-19T06:56:30;13.93;;;8.73;;
60867;SDS011;46702;48.370;10.794;2022-10-19T06:58:57;14.65;;;8.30;;
60867;SDS011;46702;48.370;10.794;2022-10-19T07:01:23;15.65;;;8.60;;
60867;SDS011;46702;48.370;10.794;2022-10-19T07:03:52;13.27;;;8.18;;
60867;SDS011;46702;48.370;10.794;2022-10-19T07:06:19;14.65;;;8.55;;
60867;SDS011;46702;48.370;10.794;2022-10-19T07:08:45;11.77;;;8.23;;
60867;SDS011;46702;48.370;10.794;2022-10-19T07:11:11;16.63;;;9.23;;
60867;SDS011;46702;48.370;10.794;2022-10-19T07:13:40;15.52;;;9.48;;
60867;SDS011;46702;48.370;10.794;2022-10-19T07:16:10;15.18;;;8.98;;
60867;SDS011;46702;48.370;10.794;2022-10-19T07:18:40;16.83;;;9.55;;
60867;SDS011;46702;48.370;10.794;2022-10-19T07:21:07;14.38;;;9.32;;
60867;SDS011;46702;48.370;10.794;2022-10-19T07:23:36;13.60;;;8.45;;
60867;SDS011;46702;48.370;10.794;2022-10-19T07:26:25;13.03;;;8.23;;
60867;SDS011;46702;48.370;10.794;2022-10-19T07:28:53;15.30;;;9.25;;
60867;SDS011;46702;48.370;10.794;2022-10-19T07:31:21;14.65;;;8.18;;
60867;SDS011;46702;48.370;10.794;2022-10-19T07:33:54;15.82;;;8.50;;
60867;SDS011;46702;48.370;10.794;2022-10-19T07:36:21;13.05;;;8.75;;
60867;SDS011;46702;48.370;10.794;2022-10-19T07:38:47;18.15;;;9.10;;
60867;SDS011;46702;48.370;10.794;2022-10-19T07:41:14;13.23;;;8.45;;
60867;SDS011;46702;48.370;10.794;2022-10-19T07:43:42;14.38;;;8.27;;
60867;SDS011;46702;48.370;10.794;2022-10-19T07:46:16;13.27;;;8.07;;
60867;SDS011;46702;48.370;10.794;2022-10-19T07:48:43;15.98;;;8.93;;
60867;SDS011;46702;48.370;10.794;2022-10-19T07:51:11;16.10;;;9.18;;
60867;SDS011;46702;48.370;10.794;2022-10-19T07:53:38;16.55;;;9.65;;
60867;SDS011;46702;48.370;10.794;2022-10-19T07:56:05;15.93;;;9.38;;
60867;SDS011;46702;48.370;10.794;2022-10-19T07:58:42;15.95;;;9.40;;
60867;SDS011;46702;48.370;10.794;2022-10-19T08:01:09;18.90;;;9.52;;
60867;SDS011;46702;48.370;10.794;2022-10-19T08:03:36;16.92;;;9.02;;
60867;SDS011;46702;48.370;10.794;2022-10-19T08:06:03;14.50;;;9.43;;
60867;SDS011;46702;48.370;10.794;2022-10-19T08:08:31;12.98;;;7.93;;
60867;SDS011;46702;48.370;10.794;2022-10-19T08:10:57;14.90;;;8.48;;
60867;SDS011;46702;48.370;10.794;2022-10-19T08:13:33;13.00;;;8.30;;
60867;SDS011;46702;48.370;10.794;2022-10-19T08:15:59;14.88;;;7.63;;
60867;SDS011;46702;48.370;10.794;2022-10-19T08:18:25;11.68;;;7.80;;
60867;SDS011;46702;48.370;10.794;2022-10-19T08:20:51;12.57;;;7.30;;
60867;SDS011;46702;48.370;10.794;2022-10-19T08:23:16;13.95;;;8.32;;
60867;SDS011;46702;48.370;10.794;2022-10-19T08:25:42;14.82;;;8.93;;
60867;SDS011;46702;48.370;10.794;2022-10-19T08:28:08;13.98;;;8.50;;
60867;SDS011;46702;48.370;10.794;2022-10-19T08:30:34;10.43;;;7.03;;
60867;SDS011;46702;48.370;10.794;2022-10-19T08:33:00;8.50;;;6.35;;
60867;SDS011;46702;48.370;10.794;2022-10-19T08:35:28;9.02;;;6.13;;
60867;SDS011;46702;48.370;10.794;2022-10-19T08:37:55;8.23;;;6.05;;
60867;SDS011;46702;48.370;10.794;2022-10-19T08:40:23;8.90;;;5.85;;
60867;SDS011;46702;48.370;10.794;2022-10-19T08:45:47;8.55;;;5.65;;
60867;SDS011;46702;48.370;10.794;2022-10-19T08:48:24;7.22;;;4.90;;
60867;SDS011;46702;48.370;10.794;2022-10-19T08:50:57;8.23;;;6.07;;
60867;SDS011;46702;48.370;10.794;2022-10-19T08:53:44;7.70;;;5.63;;
60867;SDS011;46702;48.370;10.794;2022-10-19T08:56:39;5.55;;;4.90;;
60867;SDS011;46702;48.370;10.794;2022-10-19T08:59:35;6.18;;;4.82;;
60867;SDS011;46702;48.370;10.794;2022-10-19T09:04:51;7.55;;;5.38;;
60867;SDS011;46702;48.370;10.794;2022-10-19T09:07:33;6.75;;;5.05;;
60867;SDS011;46702;48.370;10.794;2022-10-19T09:10:14;7.43;;;5.50;;
60867;SDS011;46702;48.370;10.794;2022-10-19T09:12:54;8.65;;;5.80;;
60867;SDS011;46702;48.370;10.794;2022-10-19T09:15:44;10.57;;;5.97;;
60867;SDS011;46702;48.370;10.794;2022-10-19T09:21:36;8.73;;;5.97;;
60867;SDS011;46702;48.370;10.794;2022-10-19T09:23:52;8.60;;;5.63;;
60867;SDS011;46702;48.370;10.794;2022-10-19T09:26:30;12.88;;;5.60;;
60867;SDS011;46702;48.370;10.794;2022-10-19T09:29:05;10.20;;;6.60;;
60867;SDS011;46702;48.370;10.794;2022-10-19T09:31:39;8.75;;;6.10;;
60867;SDS011;46702;48.370;10.794;2022-10-19T09:34:20;9.77;;;6.65;;
60867;SDS011;46702;48.370;10.794;2022-10-19T09:36:56;8.55;;;6.05;;
60867;SDS011;46702;48.370;10.794;2022-10-19T09:39:24;9.52;;;6.10;;
60867;SDS011;46702;48.370;10.794;2022-10-19T09:44:43;7.30;;;5.20;;
60867;SDS011;46702;48.370;10.794;2022-10-19T09:50:20;7.95;;;5.72;;
60867;SDS011;46702;48.370;10.794;2022-10-19T09:57:50;5.75;;;4.55;;
60867;SDS011;46702;48.370;10.794;2022-10-19T10:00:46;5.95;;;4.93;;
60867;SDS011;46702;48.370;10.794;2022-10-19T10:03:29;7.30;;;5.45;;
60867;SDS011;46702;48.370;10.794;2022-10-19T10:06:02;7.10;;;4.75;;
60867;SDS011;46702;48.370;10.794;2022-10-19T10:08:47;9.40;;;5.32;;
60867;SDS011;46702;48.370;10.794;2022-10-19T10:11:24;8.43;;;5.55;;
60867;SDS011;46702;48.370;10.794;2022-10-19T10:13:52;6.80;;;5.47;;
60867;SDS011;46702;48.370;10.794;2022-10-19T10:18:55;6.10;;;4.70;;
60867;SDS011;46702;48.370;10.794;2022-10-19T10:21:25;6.03;;;4.68;;
60867;SDS011;46702;48.370;10.794;2022-10-19T10:24:05;7.63;;;5.03;;
60867;SDS011;46702;48.370;10.794;2022-10-19T10:26:48;7.03;;;5.13;;
60867;SDS011;46702;48.370;10.794;2022-10-19T10:31:48;6.20;;;5.13;;
60867;SDS011;46702;48.370;10.794;2022-10-19T10:34:31;7.65;;;5.43;;
60867;SDS011;46702;48.370;10.794;2022-10-19T10:37:02;8.57;;;5.47;;
60867;SDS011;46702;48.370;10.794;2022-10-19T10:39:30;5.95;;;4.53;;
60867;SDS011;46702;48.370;10.794;2022-10-19T10:42:07;6.65;;;5.10;;
60867;SDS011;46702;48.370;10.794;2022-10-19T10:44:38;5.72;;;4.78;;
60867;SDS011;46702;48.370;10.794;2022-10-19T10:47:15;5.88;;;4.75;;
60867;SDS011;46702;48.370;10.794;2022-10-19T10:49:51;6.63;;;5.55;;
60867;SDS011;46702;48.370;10.794;2022-10-19T10:52:28;7.22;;;5.28;;
60867;SDS011;46702;48.370;10.794;2022-10-19T10:55:02;6.80;;;5.53;;
60867;SDS011;46702;48.370;10.794;2022-10-19T10:57:43;6.53;;;5.70;;
60867;SDS011;46702;48.370;10.794;2022-10-19T11:00:16;6.10;;;4.93;;
60867;SDS011;46702;48.370;10.794;2022-10-19T11:02:59;5.85;;;4.95;;
60867;SDS011;46702;48.370;10.794;2022-10-19T11:05:37;9.15;;;5.45;;
60867;SDS011;46702;48.370;10.794;2022-10-19T11:08:11;7.00;;;5.68;;
60867;SDS011;46702;48.370;10.794;2022-10-19T11:13:26;8.18;;;5.97;;
60867;SDS011;46702;48.370;10.794;2022-10-19T11:16:10;7.13;;;5.35;;
60867;SDS011;46702;48.370;10.794;2022-10-19T11:21:43;10.88;;;7.40;;
60867;SDS011;46702;48.370;10.794;2022-10-19T11:27:26;7.50;;;5.63;;
60867;SDS011;46702;48.370;10.794;2022-10-19T11:38:01;7.80;;;5.38;;
60867;SDS011;46702;48.370;10.794;2022-10-19T11:54:15;7.65;;;5.35;;
60867;SDS011;46702;48.370;10.794;2022-10-19T12:00:04;8.27;;;5.43;;
60867;SDS011;46702;48.370;10.794;2022-10-19T12:05:16;7.80;;;5.60;;
60867;SDS011;46702;48.370;10.794;2022-10-19T12:07:55;10.50;;;5.93;;
60867;SDS011;46702;48.370;10.794;2022-10-19T12:13:11;9.60;;;6.40;;
60867;SDS011;46702;48.370;10.794;2022-10-19T12:15:48;7.05;;;6.00;;
60867;SDS011;46702;48.370;10.794;2022-10-19T12:20:55;7.97;;;5.38;;
60867;SDS011;46702;48.370;10.794;2022-10-19T12:25:59;5.80;;;4.95;;
60867;SDS011;46702;48.370;10.794;2022-10-19T12:28:29;6.82;;;4.97;;
60867;SDS011;46702;48.370;10.794;2022-10-19T12:30:58;6.60;;;4.72;;
60867;SDS011;46702;48.370;10.794;2022-10-19T12:41:46;6.63;;;5.00;;
60867;SDS011;46702;48.370;10.794;2022-10-19T12:47:25;5.63;;;4.70;;
60867;SDS011;46702;48.370;10.794;2022-10-19T12:49:51;6.78;;;4.28;;
60867;SDS011;46702;48.370;10.794;2022-10-19T12:52:36;5.65;;;3.75;;
60867;SDS011;46702;48.370;10.794;2022-10-19T12:55:09;5.07;;;4.10;;
60867;SDS011;46702;48.370;10.794;2022-10-19T12:57:45;5.25;;;4.05;;
60867;SDS011;46702;48.370;10.794;2022-10-19T13:00:18;5.57;;;4.35;;
60867;SDS011;46702;48.370;10.794;2022-10-19T13:03:05;4.40;;;4.00;;
60867;SDS011;46702;48.370;10.794;2022-10-19T13:05:39;5.55;;;4.00;;
60867;SDS011;46702;48.370;10.794;2022-10-19T13:08:06;3.78;;;3.47;;
60867;SDS011;46702;48.370;10.794;2022-10-19T13:10:32;3.65;;;3.33;;
60867;SDS011;46702;48.370;10.794;2022-10-19T13:12:59;4.65;;;3.67;;
60867;SDS011;46702;48.370;10.794;2022-10-19T13:15:47;4.82;;;3.70;;
60867;SDS011;46702;48.370;10.794;2022-10-19T13:18:15;4.60;;;4.00;;
60867;SDS011;46702;48.370;10.794;2022-10-19T13:35:22;5.63;;;3.85;;
60867;SDS011;46702;48.370;10.794;2022-10-19T13:45:56;4.93;;;3.60;;
60867;SDS011;46702;48.370;10.794;2022-10-19T13:48:37;4.63;;;4.07;;
60867;SDS011;46702;48.370;10.794;2022-10-19T13:51:22;4.70;;;4.18;;
60867;SDS011;46702;48.370;10.794;2022-10-19T13:56:32;4.25;;;3.78;;
60867;SDS011;46702;48.370;10.794;2022-10-19T14:07:31;6.43;;;4.10;;
60867;SDS011;46702;48.370;10.794;2022-10-19T14:10:16;5.65;;;3.75;;
60867;SDS011;46702;48.370;10.794;2022-10-19T14:12:44;5.10;;;4.15;;
60867;SDS011;46702;48.370;10.794;2022-10-19T14:15:21;4.88;;;4.38;;
60867;SDS011;46702;48.370;10.794;2022-10-19T14:17:54;8.68;;;4.53;;
60867;SDS011;46702;48.370;10.794;2022-10-19T14:20:28;4.85;;;3.95;;
60867;SDS011;46702;48.370;10.794;2022-10-19T14:23:02;5.70;;;3.90;;
60867;SDS011;46702;48.370;10.794;2022-10-19T14:26:15;4.80;;;4.18;;
60867;SDS011;46702;48.370;10.794;2022-10-19T14:28:40;4.78;;;4.35;;
60867;SDS011;46702;48.370;10.794;2022-10-19T14:31:07;4.47;;;4.07;;
60867;SDS011;46702;48.370;10.794;2022-10-19T14:33:41;4.82;;;4.15;;
60867;SDS011;46702;48.370;10.794;2022-10-19T14:36:13;5.53;;;4.22;;
60867;SDS011;46702;48.370;10.794;2022-10-19T14:38:42;5.28;;;4.68;;
60867;SDS011;46702;48.370;10.794;2022-10-19T14:41:20;5.35;;;4.53;;
60867;SDS011;46702;48.370;10.794;2022-10-19T14:43:52;5.97;;;5.00;;
60867;SDS011;46702;48.370;10.794;2022-10-19T14:46:18;4.78;;;4.25;;
60867;SDS011;46702;48.370;10.794;2022-10-19T14:48:47;6.30;;;4.80;;
60867;SDS011;46702;48.370;10.794;2022-10-19T14:54:03;6.15;;;5.10;;
60867;SDS011;46702;48.370;10.794;2022-10-19T14:56:52;4.50;;;4.10;;
60867;SDS011;46702;48.370;10.794;2022-10-19T14:59:26;4.90;;;3.70;;
60867;SDS011;46702;48.370;10.794;2022-10-19T15:02:22;3.60;;;3.30;;
60867;SDS011;46702;48.370;10.794;2022-10-19T15:04:53;3.70;;;3.40;;
60867;SDS011;46702;48.370;10.794;2022-10-19T15:10:02;3.60;;;3.10;;
60867;SDS011;46702;48.370;10.794;2022-10-19T15:12:34;4.07;;;3.25;;
60867;SDS011;46702;48.370;10.794;2022-10-19T15:15:12;5.32;;;3.67;;
60867;SDS011;46702;48.370;10.794;2022-10-19T15:17:51;4.20;;;3.70;;
60867;SDS011;46702;48.370;10.794;2022-10-19T15:20:25;3.63;;;3.28;;
60867;SDS011;46702;48.370;10.794;2022-10-19T15:22:53;3.88;;;3.35;;
60867;SDS011;46702;48.370;10.794;2022-10-19T15:27:49;3.60;;;3.30;;
60867;SDS011;46702;48.370;10.794;2022-10-19T15:32:47;3.63;;;3.20;;
60867;SDS011;46702;48.370;10.794;2022-10-19T15:35:16;4.03;;;3.38;;
60867;SDS011;46702;48.370;10.794;2022-10-19T15:37:49;3.33;;;2.97;;
60867;SDS011;46702;48.370;10.794;2022-10-19T15:40:34;3.47;;;3.00;;
60867;SDS011;46702;48.370;10.794;2022-10-19T15:46:51;4.25;;;3.17;;
60867;SDS011;46702;48.370;10.794;2022-10-19T15:48:49;3.80;;;3.38;;
60867;SDS011;46702;48.370;10.794;2022-10-19T15:53:58;4.63;;;3.28;;
60867;SDS011;46702;48.370;10.794;2022-10-19T15:56:29;4.88;;;3.28;;
60867;SDS011;46702;48.370;10.794;2022-10-19T16:01:25;4.43;;;3.33;;
60867;SDS011;46702;48.370;10.794;2022-10-19T16:03:52;4.38;;;3.58;;
60867;SDS011;46702;48.370;10.794;2022-10-19T16:06:18;3.97;;;3.40;;
60867;SDS011;46702;48.370;10.794;2022-10-19T16:08:46;3.55;;;3.22;;
60867;SDS011;46702;48.370;10.794;2022-10-19T16:11:16;5.90;;;4.10;;
60867;SDS011;46702;48.370;10.794;2022-10-19T16:13:43;6.75;;;3.58;;
60867;SDS011;46702;48.370;10.794;2022-10-19T16:16:12;5.45;;;3.83;;
60867;SDS011;46702;48.370;10.794;2022-10-19T16:18:46;6.18;;;4.22;;
60867;SDS011;46702;48.370;10.794;2022-10-19T16:21:12;8.38;;;3.42;;
60867;SDS011;46702;48.370;10.794;2022-10-19T16:23:38;5.05;;;3.72;;
60867;SDS011;46702;48.370;10.794;2022-10-19T16:26:04;5.20;;;3.72;;
60867;SDS011;46702;48.370;10.794;2022-10-19T16:28:30;6.43;;;3.42;;
60867;SDS011;46702;48.370;10.794;2022-10-19T16:30:59;4.65;;;4.05;;
60867;SDS011;46702;48.370;10.794;2022-10-19T16:33:24;4.50;;;3.78;;
60867;SDS011;46702;48.370;10.794;2022-10-19T16:35:50;4.03;;;3.42;;
60867;SDS011;46702;48.370;10.794;2022-10-19T16:38:16;5.13;;;3.42;;
60867;SDS011;46702;48.370;10.794;2022-10-19T16:40:42;4.88;;;3.60;;
60867;SDS011;46702;48.370;10.794;2022-10-19T16:43:17;5.85;;;4.53;;
60867;SDS011;46702;48.370;10.794;2022-10-19T16:45:43;5.35;;;3.17;;
60867;SDS011;46702;48.370;10.794;2022-10-19T16:48:12;4.45;;;3.42;;
60867;SDS011;46702;48.370;10.794;2022-10-19T16:50:38;4.60;;;3.25;;
60867;SDS011;46702;48.370;10.794;2022-10-19T16:53:07;6.97;;;3.92;;
60867;SDS011;46702;48.370;10.794;2022-10-19T16:55:43;5.80;;;4.18;;
60867;SDS011;46702;48.370;10.794;2022-10-19T16:58:09;5.93;;;3.72;;
60867;SDS011;46702;48.370;10.794;2022-10-19T17:00:34;7.85;;;4.40;;
60867;SDS011;46702;48.370;10.794;2022-10-19T17:03:00;8.55;;;4.32;;
60867;SDS011;46702;48.370;10.794;2022-10-19T17:05:26;5.65;;;4.45;;
60867;SDS011;46702;48.370;10.794;2022-10-19T17:07:51;5.72;;;4.30;;
60867;SDS011;46702;48.370;10.794;2022-10-19T17:10:17;7.45;;;4.63;;
60867;SDS011;46702;48.370;10.794;2022-10-19T17:12:43;5.05;;;4.43;;
60867;SDS011;46702;48.370;10.794;2022-10-19T17:15:09;5.82;;;4.43;;
60867;SDS011;46702;48.370;10.794;2022-10-19T17:17:35;7.72;;;4.50;;
60867;SDS011;46702;48.370;10.794;2022-10-19T17:20:00;6.18;;;4.47;;
60867;SDS011;46702;48.370;10.794;2022-10-19T17:22:26;5.25;;;4.32;;